sensor_id;sensor_type;location;lat;lon;timestamp;P1;durP1;ratioP1;P2;durP2;ratioP2
61291;SDS011;47165;42.664;23.368;2023-07-31T00:00:44;2.42;;;2.20;;
61291;SDS011;47165;42.664;23.368;2023-07-31T00:03:11;3.13;;;2.08;;
61291;SDS011;47165;42.664;23.368;2023-07-31T00:05:37;3.47;;;2.13;;
61291;SDS011;47165;42.664;23.368;2023-07-31T00:08:02;4.35;;;2.53;;
61291;SDS011;47165;42.664;23.368;2023-07-31T00:10:28;3.58;;;2.63;;
61291;SDS011;47165;42.664;23.368;2023-07-31T00:12:53;3.22;;;2.60;;
61291;SDS011;47165;42.664;23.368;2023-07-31T00:15:19;4.72;;;2.42;;
61291;SDS011;47165;42.664;23.368;2023-07-31T00:17:45;3.97;;;2.15;;
61291;SDS011;47165;42.664;23.368;2023-07-31T00:20:13;5.35;;;2.28;;
61291;SDS011;47165;42.664;23.368;2023-07-31T00:22:40;4.10;;;2.35;;
61291;SDS011;47165;42.664;23.368;2023-07-31T00:25:06;3.80;;;2.50;;
61291;SDS011;47165;42.664;23.368;2023-07-31T00:27:32;3.60;;;2.67;;
61291;SDS011;47165;42.664;23.368;2023-07-31T00:29:58;4.38;;;2.40;;
61291;SDS011;47165;42.664;23.368;2023-07-31T00:32:23;3.90;;;2.75;;
61291;SDS011;47165;42.664;23.368;2023-07-31T00:34:49;2.83;;;2.53;;
61291;SDS011;47165;42.664;23.368;2023-07-31T00:37:14;3.47;;;2.40;;
61291;SDS011;47165;42.664;23.368;2023-07-31T00:39:41;5.35;;;3.03;;
61291;SDS011;47165;42.664;23.368;2023-07-31T00:42:07;3.88;;;3.03;;
61291;SDS011;47165;42.664;23.368;2023-07-31T00:44:33;2.53;;;2.30;;
61291;SDS011;47165;42.664;23.368;2023-07-31T00:46:58;3.00;;;2.22;;
61291;SDS011;47165;42.664;23.368;2023-07-31T00:49:25;2.92;;;2.22;;
61291;SDS011;47165;42.664;23.368;2023-07-31T00:51:51;5.00;;;3.17;;
61291;SDS011;47165;42.664;23.368;2023-07-31T00:54:18;7.05;;;3.08;;
61291;SDS011;47165;42.664;23.368;2023-07-31T00:56:44;3.90;;;3.00;;
61291;SDS011;47165;42.664;23.368;2023-07-31T00:59:11;4.00;;;3.40;;
61291;SDS011;47165;42.664;23.368;2023-07-31T01:01:37;4.25;;;3.42;;
61291;SDS011;47165;42.664;23.368;2023-07-31T01:04:03;5.72;;;4.00;;
61291;SDS011;47165;42.664;23.368;2023-07-31T01:06:36;6.45;;;5.15;;
61291;SDS011;47165;42.664;23.368;2023-07-31T01:09:35;6.07;;;4.40;;
61291;SDS011;47165;42.664;23.368;2023-07-31T01:12:06;4.88;;;3.80;;
61291;SDS011;47165;42.664;23.368;2023-07-31T01:14:32;6.75;;;5.43;;
61291;SDS011;47165;42.664;23.368;2023-07-31T01:16:58;8.82;;;4.60;;
61291;SDS011;47165;42.664;23.368;2023-07-31T01:19:24;8.48;;;7.13;;
61291;SDS011;47165;42.664;23.368;2023-07-31T01:22:03;8.05;;;5.80;;
61291;SDS011;47165;42.664;23.368;2023-07-31T01:27:34;7.57;;;5.00;;
61291;SDS011;47165;42.664;23.368;2023-07-31T01:30:08;9.45;;;6.97;;
61291;SDS011;47165;42.664;23.368;2023-07-31T01:35:09;11.88;;;5.82;;
61291;SDS011;47165;42.664;23.368;2023-07-31T01:37:35;11.07;;;7.80;;
61291;SDS011;47165;42.664;23.368;2023-07-31T01:40:01;10.35;;;6.53;;
61291;SDS011;47165;42.664;23.368;2023-07-31T01:42:26;7.15;;;5.18;;
61291;SDS011;47165;42.664;23.368;2023-07-31T01:44:51;10.32;;;7.53;;
61291;SDS011;47165;42.664;23.368;2023-07-31T01:47:17;12.77;;;9.70;;
61291;SDS011;47165;42.664;23.368;2023-07-31T01:49:43;16.95;;;10.02;;
61291;SDS011;47165;42.664;23.368;2023-07-31T01:52:08;14.90;;;8.90;;
61291;SDS011;47165;42.664;23.368;2023-07-31T01:54:34;11.23;;;8.05;;
61291;SDS011;47165;42.664;23.368;2023-07-31T01:56:59;16.00;;;11.90;;
61291;SDS011;47165;42.664;23.368;2023-07-31T01:59:24;17.75;;;10.20;;
61291;SDS011;47165;42.664;23.368;2023-07-31T02:01:50;11.45;;;6.13;;
61291;SDS011;47165;42.664;23.368;2023-07-31T02:04:16;17.80;;;9.55;;
61291;SDS011;47165;42.664;23.368;2023-07-31T02:06:43;17.17;;;11.23;;
61291;SDS011;47165;42.664;23.368;2023-07-31T02:09:09;15.63;;;11.15;;
61291;SDS011;47165;42.664;23.368;2023-07-31T02:11:35;19.88;;;12.07;;
61291;SDS011;47165;42.664;23.368;2023-07-31T02:14:00;15.85;;;9.05;;
61291;SDS011;47165;42.664;23.368;2023-07-31T02:16:25;21.92;;;14.27;;
61291;SDS011;47165;42.664;23.368;2023-07-31T02:18:51;18.40;;;11.15;;
61291;SDS011;47165;42.664;23.368;2023-07-31T02:21:16;19.35;;;12.98;;
61291;SDS011;47165;42.664;23.368;2023-07-31T02:23:42;19.17;;;12.25;;
61291;SDS011;47165;42.664;23.368;2023-07-31T02:26:07;19.50;;;12.52;;
61291;SDS011;47165;42.664;23.368;2023-07-31T02:28:33;21.25;;;13.38;;
61291;SDS011;47165;42.664;23.368;2023-07-31T02:30:58;17.60;;;11.15;;
61291;SDS011;47165;42.664;23.368;2023-07-31T02:33:30;16.67;;;10.57;;
61291;SDS011;47165;42.664;23.368;2023-07-31T02:35:55;17.77;;;11.93;;
61291;SDS011;47165;42.664;23.368;2023-07-31T02:38:21;19.25;;;12.18;;
61291;SDS011;47165;42.664;23.368;2023-07-31T02:40:47;20.80;;;14.75;;
61291;SDS011;47165;42.664;23.368;2023-07-31T02:43:13;17.48;;;11.07;;
61291;SDS011;47165;42.664;23.368;2023-07-31T02:45:39;19.02;;;11.50;;
61291;SDS011;47165;42.664;23.368;2023-07-31T02:48:04;20.75;;;12.80;;
61291;SDS011;47165;42.664;23.368;2023-07-31T02:50:30;18.10;;;12.32;;
61291;SDS011;47165;42.664;23.368;2023-07-31T02:52:57;18.33;;;12.27;;
61291;SDS011;47165;42.664;23.368;2023-07-31T02:55:22;22.42;;;13.00;;
61291;SDS011;47165;42.664;23.368;2023-07-31T02:57:48;15.93;;;11.38;;
61291;SDS011;47165;42.664;23.368;2023-07-31T03:00:13;19.40;;;11.85;;
61291;SDS011;47165;42.664;23.368;2023-07-31T03:02:40;18.50;;;11.90;;
61291;SDS011;47165;42.664;23.368;2023-07-31T03:05:05;22.55;;;13.40;;
61291;SDS011;47165;42.664;23.368;2023-07-31T03:07:32;22.90;;;14.80;;
61291;SDS011;47165;42.664;23.368;2023-07-31T03:09:58;16.85;;;9.98;;
61291;SDS011;47165;42.664;23.368;2023-07-31T03:12:23;20.08;;;13.73;;
61291;SDS011;47165;42.664;23.368;2023-07-31T03:14:49;19.63;;;12.45;;
61291;SDS011;47165;42.664;23.368;2023-07-31T03:17:14;20.38;;;13.40;;
61291;SDS011;47165;42.664;23.368;2023-07-31T03:19:40;20.02;;;10.95;;
61291;SDS011;47165;42.664;23.368;2023-07-31T03:22:06;19.65;;;12.80;;
61291;SDS011;47165;42.664;23.368;2023-07-31T03:24:31;25.15;;;17.15;;
61291;SDS011;47165;42.664;23.368;2023-07-31T03:26:56;17.30;;;9.93;;
61291;SDS011;47165;42.664;23.368;2023-07-31T03:29:22;19.05;;;11.70;;
61291;SDS011;47165;42.664;23.368;2023-07-31T03:31:48;21.90;;;12.75;;
61291;SDS011;47165;42.664;23.368;2023-07-31T03:34:13;21.55;;;12.82;;
61291;SDS011;47165;42.664;23.368;2023-07-31T03:36:39;17.80;;;10.18;;
61291;SDS011;47165;42.664;23.368;2023-07-31T03:39:05;15.55;;;9.50;;
61291;SDS011;47165;42.664;23.368;2023-07-31T03:41:30;20.08;;;13.07;;
61291;SDS011;47165;42.664;23.368;2023-07-31T03:43:55;23.10;;;13.13;;
61291;SDS011;47165;42.664;23.368;2023-07-31T03:46:21;21.35;;;14.10;;
61291;SDS011;47165;42.664;23.368;2023-07-31T03:48:48;23.45;;;13.27;;
61291;SDS011;47165;42.664;23.368;2023-07-31T03:51:14;16.88;;;10.75;;
61291;SDS011;47165;42.664;23.368;2023-07-31T03:53:40;22.35;;;13.52;;
61291;SDS011;47165;42.664;23.368;2023-07-31T03:56:06;22.50;;;13.50;;
61291;SDS011;47165;42.664;23.368;2023-07-31T03:58:31;17.15;;;9.93;;
61291;SDS011;47165;42.664;23.368;2023-07-31T04:00:57;21.67;;;14.15;;
61291;SDS011;47165;42.664;23.368;2023-07-31T04:03:23;24.48;;;13.13;;
61291;SDS011;47165;42.664;23.368;2023-07-31T04:05:49;18.55;;;9.75;;
61291;SDS011;47165;42.664;23.368;2023-07-31T04:08:15;18.88;;;10.85;;
61291;SDS011;47165;42.664;23.368;2023-07-31T04:10:40;25.02;;;14.80;;
61291;SDS011;47165;42.664;23.368;2023-07-31T04:13:06;18.75;;;11.38;;
61291;SDS011;47165;42.664;23.368;2023-07-31T04:15:31;17.80;;;9.43;;
61291;SDS011;47165;42.664;23.368;2023-07-31T04:17:57;11.32;;;7.80;;
61291;SDS011;47165;42.664;23.368;2023-07-31T04:20:23;23.15;;;13.40;;
61291;SDS011;47165;42.664;23.368;2023-07-31T04:22:49;27.25;;;15.85;;
61291;SDS011;47165;42.664;23.368;2023-07-31T04:25:15;26.00;;;15.88;;
61291;SDS011;47165;42.664;23.368;2023-07-31T04:27:40;21.30;;;12.93;;
61291;SDS011;47165;42.664;23.368;2023-07-31T04:30:06;21.02;;;12.40;;
61291;SDS011;47165;42.664;23.368;2023-07-31T04:32:32;22.17;;;13.20;;
61291;SDS011;47165;42.664;23.368;2023-07-31T04:34:57;23.27;;;14.18;;
61291;SDS011;47165;42.664;23.368;2023-07-31T04:37:23;21.42;;;11.57;;
61291;SDS011;47165;42.664;23.368;2023-07-31T04:39:48;24.20;;;12.85;;
61291;SDS011;47165;42.664;23.368;2023-07-31T04:42:15;13.43;;;7.35;;
61291;SDS011;47165;42.664;23.368;2023-07-31T04:44:46;15.02;;;8.40;;
61291;SDS011;47165;42.664;23.368;2023-07-31T04:47:12;20.42;;;12.23;;
61291;SDS011;47165;42.664;23.368;2023-07-31T04:49:37;20.88;;;13.05;;
61291;SDS011;47165;42.664;23.368;2023-07-31T04:52:03;12.93;;;7.32;;
61291;SDS011;47165;42.664;23.368;2023-07-31T04:54:29;18.95;;;11.48;;
61291;SDS011;47165;42.664;23.368;2023-07-31T04:56:54;19.02;;;11.43;;
61291;SDS011;47165;42.664;23.368;2023-07-31T04:59:21;19.98;;;12.15;;
61291;SDS011;47165;42.664;23.368;2023-07-31T05:01:47;18.70;;;10.68;;
61291;SDS011;47165;42.664;23.368;2023-07-31T05:04:13;24.55;;;14.43;;
61291;SDS011;47165;42.664;23.368;2023-07-31T05:06:42;21.00;;;12.80;;
61291;SDS011;47165;42.664;23.368;2023-07-31T05:09:07;21.75;;;13.45;;
61291;SDS011;47165;42.664;23.368;2023-07-31T05:11:34;21.83;;;13.02;;
61291;SDS011;47165;42.664;23.368;2023-07-31T05:14:00;20.33;;;12.35;;
61291;SDS011;47165;42.664;23.368;2023-07-31T05:16:25;21.65;;;13.25;;
61291;SDS011;47165;42.664;23.368;2023-07-31T05:18:51;18.15;;;10.20;;
61291;SDS011;47165;42.664;23.368;2023-07-31T05:21:16;14.18;;;9.27;;
61291;SDS011;47165;42.664;23.368;2023-07-31T05:23:42;19.50;;;13.13;;
61291;SDS011;47165;42.664;23.368;2023-07-31T05:26:08;14.63;;;9.93;;
61291;SDS011;47165;42.664;23.368;2023-07-31T05:28:35;16.65;;;9.95;;
61291;SDS011;47165;42.664;23.368;2023-07-31T05:31:01;15.15;;;9.73;;
61291;SDS011;47165;42.664;23.368;2023-07-31T05:33:28;18.65;;;12.73;;
61291;SDS011;47165;42.664;23.368;2023-07-31T05:35:53;17.33;;;12.75;;
61291;SDS011;47165;42.664;23.368;2023-07-31T05:38:18;11.48;;;8.07;;
61291;SDS011;47165;42.664;23.368;2023-07-31T05:40:44;15.85;;;11.10;;
61291;SDS011;47165;42.664;23.368;2023-07-31T05:43:10;11.73;;;7.75;;
61291;SDS011;47165;42.664;23.368;2023-07-31T05:45:35;14.38;;;9.60;;
61291;SDS011;47165;42.664;23.368;2023-07-31T05:48:01;12.63;;;8.43;;
61291;SDS011;47165;42.664;23.368;2023-07-31T05:50:27;9.77;;;7.55;;
61291;SDS011;47165;42.664;23.368;2023-07-31T05:52:53;11.05;;;7.78;;
61291;SDS011;47165;42.664;23.368;2023-07-31T05:55:18;9.75;;;6.93;;
61291;SDS011;47165;42.664;23.368;2023-07-31T05:57:44;13.02;;;7.82;;
61291;SDS011;47165;42.664;23.368;2023-07-31T06:00:11;11.18;;;7.25;;
61291;SDS011;47165;42.664;23.368;2023-07-31T06:02:37;16.70;;;10.40;;
61291;SDS011;47165;42.664;23.368;2023-07-31T06:05:03;12.18;;;8.82;;
61291;SDS011;47165;42.664;23.368;2023-07-31T06:07:31;6.85;;;4.95;;
61291;SDS011;47165;42.664;23.368;2023-07-31T06:09:57;9.48;;;6.80;;
61291;SDS011;47165;42.664;23.368;2023-07-31T06:12:30;7.55;;;5.30;;
61291;SDS011;47165;42.664;23.368;2023-07-31T06:14:56;10.75;;;7.18;;
61291;SDS011;47165;42.664;23.368;2023-07-31T06:17:22;10.15;;;6.07;;
61291;SDS011;47165;42.664;23.368;2023-07-31T06:19:48;6.28;;;5.20;;
61291;SDS011;47165;42.664;23.368;2023-07-31T06:22:14;12.82;;;7.50;;
61291;SDS011;47165;42.664;23.368;2023-07-31T06:24:40;6.88;;;5.53;;
61291;SDS011;47165;42.664;23.368;2023-07-31T06:27:06;7.25;;;4.55;;
61291;SDS011;47165;42.664;23.368;2023-07-31T06:29:32;8.02;;;4.43;;
61291;SDS011;47165;42.664;23.368;2023-07-31T06:31:58;5.07;;;3.97;;
61291;SDS011;47165;42.664;23.368;2023-07-31T06:34:24;5.60;;;3.63;;
61291;SDS011;47165;42.664;23.368;2023-07-31T06:36:50;7.35;;;5.40;;
61291;SDS011;47165;42.664;23.368;2023-07-31T06:39:15;3.92;;;3.20;;
61291;SDS011;47165;42.664;23.368;2023-07-31T06:41:41;3.20;;;2.17;;
61291;SDS011;47165;42.664;23.368;2023-07-31T06:44:08;5.22;;;3.60;;
61291;SDS011;47165;42.664;23.368;2023-07-31T06:46:33;4.65;;;3.08;;
61291;SDS011;47165;42.664;23.368;2023-07-31T06:48:59;6.65;;;4.30;;
61291;SDS011;47165;42.664;23.368;2023-07-31T06:51:24;5.10;;;2.90;;
61291;SDS011;47165;42.664;23.368;2023-07-31T06:53:50;6.32;;;3.70;;
61291;SDS011;47165;42.664;23.368;2023-07-31T06:56:15;5.60;;;3.00;;
61291;SDS011;47165;42.664;23.368;2023-07-31T06:58:41;6.45;;;4.63;;
61291;SDS011;47165;42.664;23.368;2023-07-31T07:01:07;7.45;;;3.60;;
61291;SDS011;47165;42.664;23.368;2023-07-31T07:03:32;8.55;;;5.70;;
61291;SDS011;47165;42.664;23.368;2023-07-31T07:05:58;7.68;;;4.38;;
61291;SDS011;47165;42.664;23.368;2023-07-31T07:08:24;5.78;;;3.78;;
61291;SDS011;47165;42.664;23.368;2023-07-31T07:10:50;3.40;;;3.08;;
61291;SDS011;47165;42.664;23.368;2023-07-31T07:13:15;3.70;;;2.53;;
61291;SDS011;47165;42.664;23.368;2023-07-31T07:15:43;5.43;;;3.17;;
61291;SDS011;47165;42.664;23.368;2023-07-31T07:18:12;4.88;;;2.75;;
61291;SDS011;47165;42.664;23.368;2023-07-31T07:20:39;4.00;;;2.53;;
61291;SDS011;47165;42.664;23.368;2023-07-31T07:23:04;5.22;;;3.33;;
61291;SDS011;47165;42.664;23.368;2023-07-31T07:25:30;6.38;;;3.60;;
61291;SDS011;47165;42.664;23.368;2023-07-31T07:27:55;3.20;;;2.45;;
61291;SDS011;47165;42.664;23.368;2023-07-31T07:30:21;3.25;;;2.42;;
61291;SDS011;47165;42.664;23.368;2023-07-31T07:32:46;4.90;;;2.60;;
61291;SDS011;47165;42.664;23.368;2023-07-31T07:35:12;6.03;;;3.47;;
61291;SDS011;47165;42.664;23.368;2023-07-31T07:37:38;3.72;;;2.83;;
61291;SDS011;47165;42.664;23.368;2023-07-31T07:40:03;4.40;;;3.53;;
61291;SDS011;47165;42.664;23.368;2023-07-31T07:42:29;7.35;;;2.85;;
61291;SDS011;47165;42.664;23.368;2023-07-31T07:44:55;17.15;;;11.00;;
61291;SDS011;47165;42.664;23.368;2023-07-31T07:47:20;17.15;;;10.50;;
61291;SDS011;47165;42.664;23.368;2023-07-31T07:49:45;6.55;;;3.75;;
61291;SDS011;47165;42.664;23.368;2023-07-31T07:52:11;4.60;;;3.20;;
61291;SDS011;47165;42.664;23.368;2023-07-31T07:54:36;3.08;;;2.25;;
61291;SDS011;47165;42.664;23.368;2023-07-31T07:57:02;4.78;;;3.50;;
61291;SDS011;47165;42.664;23.368;2023-07-31T07:59:28;4.28;;;2.88;;
61291;SDS011;47165;42.664;23.368;2023-07-31T08:01:53;3.17;;;2.85;;
61291;SDS011;47165;42.664;23.368;2023-07-31T08:04:19;3.72;;;2.45;;
61291;SDS011;47165;42.664;23.368;2023-07-31T08:06:44;2.88;;;2.15;;
61291;SDS011;47165;42.664;23.368;2023-07-31T08:09:10;3.63;;;1.63;;
61291;SDS011;47165;42.664;23.368;2023-07-31T08:11:35;5.75;;;2.72;;
61291;SDS011;47165;42.664;23.368;2023-07-31T08:14:01;6.45;;;2.58;;
61291;SDS011;47165;42.664;23.368;2023-07-31T08:16:26;4.25;;;2.42;;
61291;SDS011;47165;42.664;23.368;2023-07-31T08:18:52;7.82;;;3.20;;
61291;SDS011;47165;42.664;23.368;2023-07-31T08:21:18;5.55;;;3.10;;
61291;SDS011;47165;42.664;23.368;2023-07-31T08:23:43;4.20;;;2.78;;
61291;SDS011;47165;42.664;23.368;2023-07-31T08:26:14;3.95;;;2.92;;
61291;SDS011;47165;42.664;23.368;2023-07-31T08:28:40;4.65;;;2.08;;
61291;SDS011;47165;42.664;23.368;2023-07-31T08:31:06;4.65;;;2.88;;
61291;SDS011;47165;42.664;23.368;2023-07-31T08:33:31;3.10;;;2.53;;
61291;SDS011;47165;42.664;23.368;2023-07-31T08:35:58;2.75;;;2.03;;
61291;SDS011;47165;42.664;23.368;2023-07-31T08:38:25;11.18;;;6.25;;
61291;SDS011;47165;42.664;23.368;2023-07-31T08:40:51;4.90;;;2.70;;
61291;SDS011;47165;42.664;23.368;2023-07-31T08:43:17;6.50;;;2.97;;
61291;SDS011;47165;42.664;23.368;2023-07-31T08:45:45;11.38;;;6.88;;
61291;SDS011;47165;42.664;23.368;2023-07-31T08:48:12;3.13;;;2.28;;
61291;SDS011;47165;42.664;23.368;2023-07-31T08:50:41;5.35;;;3.67;;
61291;SDS011;47165;42.664;23.368;2023-07-31T08:53:07;3.35;;;2.45;;
61291;SDS011;47165;42.664;23.368;2023-07-31T08:55:33;4.13;;;3.13;;
61291;SDS011;47165;42.664;23.368;2023-07-31T08:57:58;4.15;;;2.40;;
61291;SDS011;47165;42.664;23.368;2023-07-31T09:00:26;51.03;;;26.15;;
61291;SDS011;47165;42.664;23.368;2023-07-31T09:02:56;27.02;;;18.02;;
61291;SDS011;47165;42.664;23.368;2023-07-31T09:05:36;6.90;;;2.47;;
61291;SDS011;47165;42.664;23.368;2023-07-31T09:08:05;3.00;;;1.98;;
61291;SDS011;47165;42.664;23.368;2023-07-31T09:10:32;20.42;;;11.20;;
61291;SDS011;47165;42.664;23.368;2023-07-31T09:12:58;7.95;;;4.32;;
61291;SDS011;47165;42.664;23.368;2023-07-31T09:15:24;43.47;;;29.55;;
61291;SDS011;47165;42.664;23.368;2023-07-31T09:17:58;9.82;;;4.80;;
61291;SDS011;47165;42.664;23.368;2023-07-31T09:25:33;4.18;;;2.38;;
61291;SDS011;47165;42.664;23.368;2023-07-31T09:28:00;4.38;;;2.55;;
61291;SDS011;47165;42.664;23.368;2023-07-31T09:30:26;9.48;;;4.47;;
61291;SDS011;47165;42.664;23.368;2023-07-31T09:33:00;3.58;;;2.00;;
61291;SDS011;47165;42.664;23.368;2023-07-31T09:35:28;6.22;;;3.88;;
61291;SDS011;47165;42.664;23.368;2023-07-31T09:37:58;5.30;;;3.33;;
61291;SDS011;47165;42.664;23.368;2023-07-31T09:40:36;4.15;;;2.40;;
61291;SDS011;47165;42.664;23.368;2023-07-31T09:43:04;2.13;;;1.55;;
61291;SDS011;47165;42.664;23.368;2023-07-31T09:45:33;4.93;;;2.92;;
61291;SDS011;47165;42.664;23.368;2023-07-31T09:48:01;6.60;;;2.15;;
61291;SDS011;47165;42.664;23.368;2023-07-31T09:50:28;3.88;;;2.35;;
61291;SDS011;47165;42.664;23.368;2023-07-31T09:52:54;2.50;;;2.13;;
61291;SDS011;47165;42.664;23.368;2023-07-31T09:55:20;4.00;;;2.90;;
61291;SDS011;47165;42.664;23.368;2023-07-31T09:57:46;3.83;;;2.70;;
61291;SDS011;47165;42.664;23.368;2023-07-31T10:00:13;3.15;;;2.00;;
61291;SDS011;47165;42.664;23.368;2023-07-31T10:02:40;5.60;;;2.67;;
61291;SDS011;47165;42.664;23.368;2023-07-31T10:05:07;3.05;;;2.15;;
61291;SDS011;47165;42.664;23.368;2023-07-31T10:07:36;4.13;;;1.90;;
61291;SDS011;47165;42.664;23.368;2023-07-31T10:10:04;4.78;;;2.28;;
61291;SDS011;47165;42.664;23.368;2023-07-31T10:12:33;3.45;;;2.28;;
61291;SDS011;47165;42.664;23.368;2023-07-31T10:14:59;2.13;;;1.33;;
61291;SDS011;47165;42.664;23.368;2023-07-31T10:17:26;3.25;;;2.25;;
61291;SDS011;47165;42.664;23.368;2023-07-31T10:19:54;2.78;;;1.92;;
61291;SDS011;47165;42.664;23.368;2023-07-31T10:22:23;3.80;;;2.55;;
61291;SDS011;47165;42.664;23.368;2023-07-31T10:24:50;3.00;;;1.85;;
61291;SDS011;47165;42.664;23.368;2023-07-31T10:27:17;3.00;;;1.83;;
61291;SDS011;47165;42.664;23.368;2023-07-31T10:29:43;2.83;;;1.88;;
61291;SDS011;47165;42.664;23.368;2023-07-31T10:32:12;2.67;;;1.70;;
61291;SDS011;47165;42.664;23.368;2023-07-31T10:34:40;3.83;;;2.15;;
61291;SDS011;47165;42.664;23.368;2023-07-31T10:42:32;5.72;;;1.95;;
61291;SDS011;47165;42.664;23.368;2023-07-31T10:45:08;6.25;;;1.92;;
61291;SDS011;47165;42.664;23.368;2023-07-31T10:47:43;3.42;;;1.60;;
61291;SDS011;47165;42.664;23.368;2023-07-31T10:52:44;2.10;;;1.52;;
61291;SDS011;47165;42.664;23.368;2023-07-31T10:58:09;2.00;;;1.60;;
61291;SDS011;47165;42.664;23.368;2023-07-31T11:00:40;1.60;;;1.40;;
61291;SDS011;47165;42.664;23.368;2023-07-31T11:03:10;2.08;;;1.58;;
61291;SDS011;47165;42.664;23.368;2023-07-31T11:05:41;2.03;;;1.67;;
61291;SDS011;47165;42.664;23.368;2023-07-31T11:08:17;2.72;;;1.73;;
61291;SDS011;47165;42.664;23.368;2023-07-31T11:10:48;2.22;;;1.60;;
61291;SDS011;47165;42.664;23.368;2023-07-31T11:13:44;2.63;;;1.70;;
61291;SDS011;47165;42.664;23.368;2023-07-31T11:16:12;4.57;;;1.70;;
61291;SDS011;47165;42.664;23.368;2023-07-31T11:18:39;1.75;;;1.48;;
61291;SDS011;47165;42.664;23.368;2023-07-31T11:21:06;2.20;;;1.55;;
61291;SDS011;47165;42.664;23.368;2023-07-31T11:23:32;1.65;;;1.17;;
61291;SDS011;47165;42.664;23.368;2023-07-31T11:26:01;2.35;;;1.35;;
61291;SDS011;47165;42.664;23.368;2023-07-31T11:28:31;2.75;;;1.63;;
61291;SDS011;47165;42.664;23.368;2023-07-31T11:30:57;1.90;;;1.30;;
61291;SDS011;47165;42.664;23.368;2023-07-31T11:33:23;1.90;;;1.13;;
61291;SDS011;47165;42.664;23.368;2023-07-31T11:35:49;2.38;;;1.65;;
61291;SDS011;47165;42.664;23.368;2023-07-31T11:38:21;2.08;;;1.55;;
61291;SDS011;47165;42.664;23.368;2023-07-31T11:40:52;2.63;;;1.65;;
61291;SDS011;47165;42.664;23.368;2023-07-31T11:43:19;2.17;;;1.50;;
61291;SDS011;47165;42.664;23.368;2023-07-31T11:45:50;2.28;;;1.38;;
61291;SDS011;47165;42.664;23.368;2023-07-31T11:48:24;2.50;;;1.77;;
61291;SDS011;47165;42.664;23.368;2023-07-31T11:50:50;2.80;;;1.65;;
61291;SDS011;47165;42.664;23.368;2023-07-31T11:53:17;4.72;;;2.10;;
61291;SDS011;47165;42.664;23.368;2023-07-31T11:55:46;7.03;;;2.13;;
61291;SDS011;47165;42.664;23.368;2023-07-31T11:58:12;3.25;;;1.65;;
61291;SDS011;47165;42.664;23.368;2023-07-31T12:00:40;3.42;;;2.28;;
61291;SDS011;47165;42.664;23.368;2023-07-31T12:03:06;7.07;;;1.83;;
61291;SDS011;47165;42.664;23.368;2023-07-31T12:05:32;4.25;;;2.08;;
61291;SDS011;47165;42.664;23.368;2023-07-31T12:07:58;3.03;;;1.67;;
61291;SDS011;47165;42.664;23.368;2023-07-31T12:10:26;5.68;;;2.15;;
61291;SDS011;47165;42.664;23.368;2023-07-31T12:15:42;3.00;;;2.00;;
61291;SDS011;47165;42.664;23.368;2023-07-31T12:18:12;4.63;;;2.53;;
61291;SDS011;47165;42.664;23.368;2023-07-31T12:23:12;3.90;;;2.70;;
61291;SDS011;47165;42.664;23.368;2023-07-31T12:25:39;3.50;;;2.28;;
61291;SDS011;47165;42.664;23.368;2023-07-31T12:28:04;4.28;;;2.38;;
61291;SDS011;47165;42.664;23.368;2023-07-31T12:30:33;4.85;;;2.42;;
61291;SDS011;47165;42.664;23.368;2023-07-31T12:33:03;8.23;;;3.03;;
61291;SDS011;47165;42.664;23.368;2023-07-31T12:35:37;5.22;;;2.78;;
61291;SDS011;47165;42.664;23.368;2023-07-31T12:38:03;5.10;;;3.88;;
61291;SDS011;47165;42.664;23.368;2023-07-31T12:40:29;4.75;;;3.55;;
61291;SDS011;47165;42.664;23.368;2023-07-31T12:45:22;4.35;;;3.35;;
61291;SDS011;47165;42.664;23.368;2023-07-31T12:47:48;4.78;;;3.08;;
61291;SDS011;47165;42.664;23.368;2023-07-31T12:50:14;5.07;;;3.42;;
61291;SDS011;47165;42.664;23.368;2023-07-31T12:52:39;4.95;;;3.22;;
61291;SDS011;47165;42.664;23.368;2023-07-31T12:55:05;4.32;;;2.90;;
61291;SDS011;47165;42.664;23.368;2023-07-31T12:57:30;4.50;;;3.15;;
61291;SDS011;47165;42.664;23.368;2023-07-31T12:59:56;4.88;;;3.42;;
61291;SDS011;47165;42.664;23.368;2023-07-31T13:02:21;3.30;;;2.83;;
61291;SDS011;47165;42.664;23.368;2023-07-31T13:04:47;7.70;;;4.05;;
61291;SDS011;47165;42.664;23.368;2023-07-31T13:07:14;4.60;;;3.20;;
61291;SDS011;47165;42.664;23.368;2023-07-31T13:09:49;5.07;;;4.05;;
61291;SDS011;47165;42.664;23.368;2023-07-31T13:12:15;5.35;;;4.40;;
61291;SDS011;47165;42.664;23.368;2023-07-31T13:14:41;2.92;;;2.35;;
61291;SDS011;47165;42.664;23.368;2023-07-31T13:17:06;6.10;;;4.30;;
61291;SDS011;47165;42.664;23.368;2023-07-31T13:19:31;5.15;;;3.60;;
61291;SDS011;47165;42.664;23.368;2023-07-31T13:21:57;6.97;;;4.25;;
61291;SDS011;47165;42.664;23.368;2023-07-31T13:24:23;4.93;;;3.85;;
61291;SDS011;47165;42.664;23.368;2023-07-31T13:26:48;4.07;;;3.15;;
61291;SDS011;47165;42.664;23.368;2023-07-31T13:29:14;3.83;;;3.10;;
61291;SDS011;47165;42.664;23.368;2023-07-31T13:31:39;7.60;;;4.10;;
61291;SDS011;47165;42.664;23.368;2023-07-31T13:34:05;4.60;;;3.67;;
61291;SDS011;47165;42.664;23.368;2023-07-31T13:36:30;5.95;;;3.47;;
61291;SDS011;47165;42.664;23.368;2023-07-31T13:38:56;5.32;;;2.72;;
61291;SDS011;47165;42.664;23.368;2023-07-31T13:41:21;4.63;;;3.67;;
61291;SDS011;47165;42.664;23.368;2023-07-31T13:43:47;6.30;;;3.72;;
61291;SDS011;47165;42.664;23.368;2023-07-31T13:46:12;6.25;;;3.38;;
61291;SDS011;47165;42.664;23.368;2023-07-31T13:48:37;3.92;;;2.92;;
61291;SDS011;47165;42.664;23.368;2023-07-31T13:51:03;7.57;;;4.05;;
61291;SDS011;47165;42.664;23.368;2023-07-31T13:53:28;5.53;;;3.42;;
61291;SDS011;47165;42.664;23.368;2023-07-31T13:55:54;5.95;;;2.60;;
61291;SDS011;47165;42.664;23.368;2023-07-31T13:58:20;3.13;;;2.78;;
61291;SDS011;47165;42.664;23.368;2023-07-31T14:00:45;6.88;;;5.13;;
61291;SDS011;47165;42.664;23.368;2023-07-31T14:03:11;4.63;;;3.90;;
61291;SDS011;47165;42.664;23.368;2023-07-31T14:05:37;6.10;;;3.22;;
61291;SDS011;47165;42.664;23.368;2023-07-31T14:08:03;6.13;;;4.18;;
61291;SDS011;47165;42.664;23.368;2023-07-31T14:10:28;6.70;;;4.68;;
61291;SDS011;47165;42.664;23.368;2023-07-31T14:12:54;6.35;;;3.42;;
61291;SDS011;47165;42.664;23.368;2023-07-31T14:15:19;3.35;;;3.05;;
61291;SDS011;47165;42.664;23.368;2023-07-31T14:17:45;4.72;;;3.40;;
61291;SDS011;47165;42.664;23.368;2023-07-31T14:20:11;3.53;;;3.22;;
61291;SDS011;47165;42.664;23.368;2023-07-31T14:22:36;6.05;;;3.30;;
61291;SDS011;47165;42.664;23.368;2023-07-31T14:25:03;4.18;;;3.63;;
61291;SDS011;47165;42.664;23.368;2023-07-31T14:27:28;7.03;;;4.05;;
61291;SDS011;47165;42.664;23.368;2023-07-31T14:29:54;4.40;;;3.50;;
61291;SDS011;47165;42.664;23.368;2023-07-31T14:32:20;5.35;;;3.97;;
61291;SDS011;47165;42.664;23.368;2023-07-31T14:34:46;4.82;;;3.28;;
61291;SDS011;47165;42.664;23.368;2023-07-31T14:37:11;6.03;;;4.05;;
61291;SDS011;47165;42.664;23.368;2023-07-31T14:39:37;3.63;;;3.28;;
61291;SDS011;47165;42.664;23.368;2023-07-31T14:42:02;4.70;;;3.58;;
61291;SDS011;47165;42.664;23.368;2023-07-31T14:44:28;4.05;;;3.15;;
61291;SDS011;47165;42.664;23.368;2023-07-31T14:46:53;3.42;;;2.13;;
61291;SDS011;47165;42.664;23.368;2023-07-31T14:49:19;3.42;;;2.83;;
61291;SDS011;47165;42.664;23.368;2023-07-31T14:51:45;5.45;;;3.50;;